Time,TemperatureF,DewpointF,PressureIn,WindDirection,WindDirectionDegrees,WindSpeedMPH,WindSpeedGustMPH,Humidity,HourlyPrecipIn,Conditions,Clouds,dailyrainin,SoftwareType,DateUTC
2013-07-24 00:01:00,57.6,45.1,31.87,North,9,0.0,0.0,63,0.00,,,0.00,VWS V14.01,2013-07-24 04:01:00,
2013-07-24 00:03:00,57.4,44.9,31.87,North,6,4.0,6.7,63,0.00,,,0.00,VWS V14.01,2013-07-24 04:03:00,
2013-07-24 00:04:00,57.4,45.3,31.87,North,6,0.0,6.7,64,0.00,,,0.00,VWS V14.01,2013-07-24 04:04:00,
2013-07-24 00:07:00,57.2,45.2,31.87,North,10,0.0,0.0,64,0.00,,,0.00,VWS V14.01,2013-07-24 04:07:00,
2013-07-24 00:12:00,57.0,45.4,31.87,North,9,0.0,0.0,65,0.00,,,0.00,VWS V14.01,2013-07-24 04:12:00,
2013-07-24 00:13:00,57.0,45.4,31.87,North,9,3.4,6.7,65,0.00,,,0.00,VWS V14.01,2013-07-24 04:13:00,
2013-07-24 00:18:00,56.8,45.2,31.87,North,9,0.0,5.6,65,0.00,,,0.00,VWS V14.01,2013-07-24 04:18:00,
2013-07-24 00:24:00,56.7,45.4,31.87,North,10,0.0,8.9,66,0.00,,,0.00,VWS V14.01,2013-07-24 04:24:00,
2013-07-24 00:30:00,56.7,45.4,31.87,North,357,0.0,0.0,66,0.00,,,0.00,VWS V14.01,2013-07-24 04:30:00,
2013-07-24 00:35:00,56.5,45.7,31.87,North,5,0.0,0.0,67,0.00,,,0.00,VWS V14.01,2013-07-24 04:35:00,
2013-07-24 00:41:00,56.3,45.5,31.87,North,5,0.0,0.0,67,0.00,,,0.00,VWS V14.01,2013-07-24 04:41:00,
2013-07-24 00:46:00,56.1,45.3,31.87,North,5,0.0,0.0,67,0.00,,,0.00,VWS V14.01,2013-07-24 04:46:00,
2013-07-24 00:52:00,55.9,45.5,31.87,North,5,0.0,0.0,68,0.00,,,0.00,VWS V14.01,2013-07-24 04:52:00,
2013-07-24 00:57:00,55.8,45.4,31.87,North,1,0.0,0.0,68,0.00,,,0.00,VWS V14.01,2013-07-24 04:57:00,
2013-07-24 01:02:00,55.8,45.4,31.87,North,8,4.7,7.8,68,0.00,,,0.00,VWS V14.01,2013-07-24 05:02:00,
2013-07-24 01:07:00,55.4,45.4,31.87,North,8,0.0,6.7,69,0.00,,,0.00,VWS V14.01,2013-07-24 05:07:00,
2013-07-24 01:12:00,55.4,45.4,31.87,North,8,0.0,0.0,69,0.00,,,0.00,VWS V14.01,2013-07-24 05:12:00,
2013-07-24 01:18:00,55.2,45.6,31.87,North,8,0.0,0.0,70,0.00,,,0.00,VWS V14.01,2013-07-24 05:18:00,
2013-07-24 01:23:00,55.0,45.5,31.87,North,8,3.4,6.7,70,0.00,,,0.00,VWS V14.01,2013-07-24 05:23:00,
2013-07-24 01:29:00,54.9,45.7,31.87,NNE,15,4.7,7.8,71,0.00,,,0.00,VWS V14.01,2013-07-24 05:29:00,
2013-07-24 01:34:00,54.9,45.7,31.87,North,4,4.0,6.7,71,0.00,,,0.00,VWS V14.01,2013-07-24 05:34:00,
2013-07-24 01:40:00,54.9,45.7,31.87,North,5,4.0,7.8,71,0.00,,,0.00,VWS V14.01,2013-07-24 05:40:00,
2013-07-24 01:45:00,54.7,45.5,31.87,North,9,4.0,6.7,71,0.00,,,0.00,VWS V14.01,2013-07-24 05:45:00,
2013-07-24 01:51:00,54.5,45.3,31.87,North,9,0.0,0.0,71,0.00,,,0.00,VWS V14.01,2013-07-24 05:51:00,
2013-07-24 01:57:00,54.3,45.5,31.87,North,8,0.0,0.0,72,0.00,,,0.00,VWS V14.01,2013-07-24 05:57:00,
2013-07-24 02:02:00,54.3,45.5,31.87,North,6,0.0,0.0,72,0.00,,,0.00,VWS V14.01,2013-07-24 06:02:00,
2013-07-24 02:46:00,54.3,46.2,31.87,NNE,13,4.0,7.8,74,0.00,,,0.00,VWS V14.01,2013-07-24 06:46:00,
2013-07-24 02:52:00,54.3,46.2,31.87,NNE,13,0.0,8.9,74,0.00,,,0.00,VWS V14.01,2013-07-24 06:52:00,
2013-07-24 02:57:00,54.5,46.4,31.87,NNE,29,4.0,12.3,74,0.00,,,0.00,VWS V14.01,2013-07-24 06:57:00,
2013-07-24 03:03:00,54.3,46.2,31.87,NNE,19,0.0,7.8,74,0.00,,,0.00,VWS V14.01,2013-07-24 07:03:00,
2013-07-24 03:08:00,54.1,46.0,31.87,NNE,14,0.0,6.7,74,0.00,,,0.00,VWS V14.01,2013-07-24 07:08:00,
2013-07-24 03:14:00,54.1,46.0,31.87,NNE,13,0.0,0.0,74,0.00,,,0.00,VWS V14.01,2013-07-24 07:14:00,
2013-07-24 03:19:00,54.0,45.9,31.87,NNE,20,4.0,7.8,74,0.00,,,0.00,VWS V14.01,2013-07-24 07:19:00,
2013-07-24 03:25:00,53.6,45.2,31.87,NNE,20,0.0,0.0,73,0.00,,,0.00,VWS V14.01,2013-07-24 07:25:00,
2013-07-24 03:31:00,53.4,45.3,31.87,NNE,20,0.0,0.0,74,0.00,,,0.00,VWS V14.01,2013-07-24 07:31:00,
2013-07-24 03:36:00,53.2,45.2,31.87,NNE,20,0.0,0.0,74,0.00,,,0.00,VWS V14.01,2013-07-24 07:36:00,
2013-07-24 03:41:00,53.1,45.4,31.87,NNE,21,0.0,0.0,75,0.00,,,0.00,VWS V14.01,2013-07-24 07:41:00,
2013-07-24 03:46:00,52.9,45.2,31.87,NNE,21,0.0,0.0,75,0.00,,,0.00,VWS V14.01,2013-07-24 07:46:00,
2013-07-24 03:51:00,52.7,45.0,31.87,NNE,21,0.0,0.0,75,0.00,,,0.00,VWS V14.01,2013-07-24 07:51:00,
2013-07-24 03:56:00,52.7,45.4,31.87,NNE,21,0.0,0.0,76,0.00,,,0.00,VWS V14.01,2013-07-24 07:56:00,
2013-07-24 04:02:00,52.5,45.5,31.87,NNE,14,0.0,0.0,77,0.00,,,0.00,VWS V14.01,2013-07-24 08:02:00,
2013-07-24 04:07:00,52.2,45.2,31.87,NNE,14,0.0,0.0,77,0.00,,,0.00,VWS V14.01,2013-07-24 08:07:00,
2013-07-24 04:12:00,52.0,45.0,31.87,NNE,14,0.0,0.0,77,0.00,,,0.00,VWS V14.01,2013-07-24 08:12:00,
2013-07-24 04:17:00,52.0,45.0,31.87,NNE,14,0.0,0.0,77,0.00,,,0.00,VWS V14.01,2013-07-24 08:17:00,
2013-07-24 04:23:00,51.8,44.8,31.87,NNE,14,0.0,0.0,77,0.00,,,0.00,VWS V14.01,2013-07-24 08:23:00,
2013-07-24 04:28:00,51.6,45.0,31.87,NNE,14,0.0,0.0,78,0.00,,,0.00,VWS V14.01,2013-07-24 08:28:00,
2013-07-24 04:34:00,51.6,45.0,31.87,NNE,14,0.0,0.0,78,0.00,,,0.00,VWS V14.01,2013-07-24 08:34:00,
2013-07-24 04:39:00,51.6,45.3,31.87,NNE,14,0.0,0.0,79,0.00,,,0.00,VWS V14.01,2013-07-24 08:39:00,
2013-07-24 04:45:00,51.6,45.3,31.87,NNE,14,0.0,0.0,79,0.00,,,0.00,VWS V14.01,2013-07-24 08:45:00,
2013-07-24 04:51:00,51.3,45.3,31.87,NNE,14,0.0,0.0,80,0.00,,,0.00,VWS V14.01,2013-07-24 08:51:00,
2013-07-24 04:57:00,51.1,45.1,31.87,NNE,14,0.0,0.0,80,0.00,,,0.00,VWS V14.01,2013-07-24 08:57:00,
2013-07-24 05:03:00,51.1,45.5,31.87,NNE,14,0.0,0.0,81,0.00,,,0.00,VWS V14.01,2013-07-24 09:03:00,
2013-07-24 05:09:00,50.9,45.3,31.87,NNE,14,0.0,0.0,81,0.00,,,0.00,VWS V14.01,2013-07-24 09:09:00,
2013-07-24 05:14:00,50.7,45.4,31.87,NNE,14,0.0,0.0,82,0.00,,,0.00,VWS V14.01,2013-07-24 09:14:00,
2013-07-24 05:20:00,50.7,45.4,31.87,NNE,14,0.0,0.0,82,0.00,,,0.00,VWS V14.01,2013-07-24 09:20:00,
2013-07-24 05:26:00,50.5,45.3,31.87,NNE,14,0.0,0.0,82,0.00,,,0.00,VWS V14.01,2013-07-24 09:26:00,
2013-07-24 05:32:00,50.5,45.3,31.87,NNE,14,0.0,0.0,82,0.00,,,0.00,VWS V14.01,2013-07-24 09:32:00,
2013-07-24 05:38:00,50.4,45.4,31.87,NNE,14,0.0,0.0,83,0.00,,,0.00,VWS V14.01,2013-07-24 09:38:00,
2013-07-24 05:43:00,50.2,45.2,31.87,NNE,19,0.0,0.0,83,0.00,,,0.00,VWS V14.01,2013-07-24 09:43:00,
2013-07-24 05:48:00,50.2,45.2,31.87,NNE,19,0.0,0.0,83,0.00,,,0.00,VWS V14.01,2013-07-24 09:48:00,
2013-07-24 05:54:00,50.2,45.5,31.87,NNE,19,0.0,0.0,84,0.00,,,0.00,VWS V14.01,2013-07-24 09:54:00,
2013-07-24 05:59:00,50.0,45.4,31.87,NNE,19,0.0,0.0,84,0.00,,,0.00,VWS V14.01,2013-07-24 09:59:00,
2013-07-24 06:05:00,49.8,45.2,31.87,NNE,19,0.0,0.0,84,0.00,,,0.00,VWS V14.01,2013-07-24 10:05:00,
2013-07-24 06:11:00,49.8,45.5,31.87,NNE,19,0.0,5.6,85,0.00,,,0.00,VWS V14.01,2013-07-24 10:11:00,
2013-07-24 06:16:00,49.8,45.5,31.87,NNE,18,0.0,0.0,85,0.00,,,0.00,VWS V14.01,2013-07-24 10:16:00,
2013-07-24 06:21:00,49.8,45.5,31.87,NNE,18,0.0,0.0,85,0.00,,,0.00,VWS V14.01,2013-07-24 10:21:00,
2013-07-24 06:26:00,49.8,45.5,31.87,NNE,18,0.0,0.0,85,0.00,,,0.00,VWS V14.01,2013-07-24 10:26:00,
2013-07-24 06:32:00,49.8,45.8,31.87,North,8,0.0,0.0,86,0.00,,,0.00,VWS V14.01,2013-07-24 10:32:00,
2013-07-24 06:37:00,49.8,45.8,31.87,North,8,0.0,0.0,86,0.00,,,0.00,VWS V14.01,2013-07-24 10:37:00,
2013-07-24 06:42:00,49.8,45.8,31.87,North,10,0.0,0.0,86,0.00,,,0.00,VWS V14.01,2013-07-24 10:42:00,
2013-07-24 06:47:00,50.0,45.7,31.87,North,10,0.0,0.0,85,0.00,,,0.00,VWS V14.01,2013-07-24 10:47:00,
2013-07-24 06:52:00,50.0,46.0,31.87,North,10,0.0,0.0,86,0.00,,,0.00,VWS V14.01,2013-07-24 10:52:00,
2013-07-24 06:58:00,50.2,46.2,31.87,North,10,0.0,0.0,86,0.00,,,0.00,VWS V14.01,2013-07-24 10:58:00,
2013-07-24 07:04:00,50.2,46.2,31.87,North,10,0.0,0.0,86,0.00,,,0.00,VWS V14.01,2013-07-24 11:04:00,
2013-07-24 07:10:00,50.4,46.3,31.87,North,9,0.0,0.0,86,0.00,,,0.00,VWS V14.01,2013-07-24 11:10:00,
2013-07-24 07:16:00,50.5,46.5,31.87,NNE,27,0.0,0.0,86,0.00,,,0.00,VWS V14.01,2013-07-24 11:16:00,
2013-07-24 07:22:00,50.7,46.7,31.87,NNE,27,0.0,0.0,86,0.00,,,0.00,VWS V14.01,2013-07-24 11:22:00,
2013-07-24 07:27:00,50.7,46.7,31.87,NNE,25,3.4,6.7,86,0.00,,,0.00,VWS V14.01,2013-07-24 11:27:00,
2013-07-24 07:32:00,51.1,47.0,31.87,NNE,20,4.0,7.8,86,0.00,,,0.00,VWS V14.01,2013-07-24 11:32:00,
2013-07-24 07:37:00,52.9,48.8,31.87,NNE,22,0.0,0.0,86,0.00,,,0.00,VWS V14.01,2013-07-24 11:37:00,
2013-07-24 07:42:00,52.9,48.5,31.87,NNE,22,0.0,0.0,85,0.00,,,0.00,VWS V14.01,2013-07-24 11:42:00,
2013-07-24 07:47:00,52.3,48.0,31.87,NNE,22,0.0,0.0,85,0.00,,,0.00,VWS V14.01,2013-07-24 11:47:00,
2013-07-24 07:52:00,52.3,48.0,31.87,NNE,31,0.0,0.0,85,0.00,,,0.00,VWS V14.01,2013-07-24 11:52:00,
2013-07-24 07:57:00,52.5,48.2,31.87,NNE,19,6.0,10.1,85,0.00,,,0.00,VWS V14.01,2013-07-24 11:57:00,
2013-07-24 08:02:00,52.7,48.3,31.87,NNE,28,3.4,10.1,85,0.00,,,0.00,VWS V14.01,2013-07-24 12:02:00,
2013-07-24 08:08:00,53.1,48.7,31.87,NNE,26,0.0,0.0,85,0.00,,,0.00,VWS V14.01,2013-07-24 12:08:00,
2013-07-24 08:14:00,53.1,48.7,31.87,NNE,25,0.0,0.0,85,0.00,,,0.00,VWS V14.01,2013-07-24 12:14:00,
2013-07-24 08:20:00,53.4,48.7,31.87,NNE,21,4.7,8.9,84,0.00,,,0.00,VWS V14.01,2013-07-24 12:20:00,
2013-07-24 08:27:00,53.8,48.8,31.87,North,6,3.4,10.1,83,0.00,,,0.00,VWS V14.01,2013-07-24 12:27:00,
2013-07-24 08:32:00,54.0,48.9,31.87,NNE,17,4.0,6.7,83,0.00,,,0.00,VWS V14.01,2013-07-24 12:32:00,
2013-07-24 08:37:00,54.1,48.8,31.87,NNE,27,6.0,10.1,82,0.00,,,0.00,VWS V14.01,2013-07-24 12:37:00,
2013-07-24 08:43:00,54.5,49.1,31.87,NNE,21,6.7,13.4,82,0.00,,,0.00,VWS V14.01,2013-07-24 12:43:00,
2013-07-24 08:48:00,54.7,49.0,31.87,NNE,25,4.0,8.9,81,0.00,,,0.00,VWS V14.01,2013-07-24 12:48:00,
2013-07-24 08:53:00,55.0,49.3,31.87,North,10,4.0,6.7,81,0.00,,,0.00,VWS V14.01,2013-07-24 12:53:00,
2013-07-24 08:58:00,55.2,49.2,31.87,North,10,3.4,10.1,80,0.00,,,0.00,VWS V14.01,2013-07-24 12:58:00,
2013-07-24 09:03:00,55.6,49.2,31.87,NNE,14,6.0,10.1,79,0.00,,,0.00,VWS V14.01,2013-07-24 13:03:00,
2013-07-24 09:08:00,55.9,49.2,31.87,NNE,12,0.0,6.7,78,0.00,,,0.00,VWS V14.01,2013-07-24 13:08:00,
2013-07-24 09:13:00,56.1,49.0,31.87,NNE,16,6.0,10.1,77,0.00,,,0.00,VWS V14.01,2013-07-24 13:13:00,
2013-07-24 09:18:00,56.3,48.8,31.87,NNE,18,5.4,12.3,76,0.00,,,0.00,VWS V14.01,2013-07-24 13:18:00,
2013-07-24 09:24:00,56.8,49.4,31.87,North,9,5.4,8.9,76,0.00,,,0.00,VWS V14.01,2013-07-24 13:24:00,
2013-07-24 09:29:00,57.0,49.2,31.87,NNE,18,4.7,7.8,75,0.00,,,0.00,VWS V14.01,2013-07-24 13:29:00,
2013-07-24 09:36:00,57.6,49.0,31.87,North,11,3.4,7.8,73,0.00,,,0.00,VWS V14.01,2013-07-24 13:36:00,
2013-07-24 09:42:00,57.9,49.0,31.87,North,5,4.0,8.9,72,0.00,,,0.00,VWS V14.01,2013-07-24 13:42:00,
2013-07-24 09:47:00,58.1,49.1,31.87,North,353,4.0,6.7,72,0.00,,,0.00,VWS V14.01,2013-07-24 13:47:00,
2013-07-24 09:53:00,58.5,49.1,31.87,NNE,29,4.0,7.8,71,0.00,,,0.00,VWS V14.01,2013-07-24 13:53:00,
2013-07-24 09:58:00,58.6,48.1,31.87,North,2,4.7,8.9,68,0.00,,,0.00,VWS V14.01,2013-07-24 13:58:00,
2013-07-24 10:03:00,58.8,48.3,31.87,NNE,32,0.0,0.0,68,0.00,,,0.00,VWS V14.01,2013-07-24 14:03:00,
2013-07-24 10:09:00,59.2,48.2,31.87,NNE,33,0.0,5.6,67,0.00,,,0.00,VWS V14.01,2013-07-24 14:09:00,
2013-07-24 10:15:00,59.5,48.2,31.87,NNE,16,4.7,7.8,66,0.00,,,0.00,VWS V14.01,2013-07-24 14:15:00,
2013-07-24 10:21:00,59.9,48.1,31.87,NNE,25,4.0,8.9,65,0.00,,,0.00,VWS V14.01,2013-07-24 14:21:00,
2013-07-24 10:27:00,60.3,47.6,31.87,NNE,24,8.7,14.5,63,0.00,,,0.00,VWS V14.01,2013-07-24 14:27:00,
2013-07-24 10:32:00,60.6,47.5,31.87,NNE,27,4.0,14.5,62,0.00,,,0.00,VWS V14.01,2013-07-24 14:32:00,
2013-07-24 10:37:00,60.8,46.8,31.87,NNE,25,4.7,10.1,60,0.00,,,0.00,VWS V14.01,2013-07-24 14:37:00,
2013-07-24 10:42:00,61.0,45.7,31.87,NNE,29,4.7,15.7,57,0.00,,,0.00,VWS V14.01,2013-07-24 14:42:00,
2013-07-24 10:48:00,61.3,45.5,31.87,North,5,5.4,11.2,56,0.00,,,0.00,VWS V14.01,2013-07-24 14:48:00,
2013-07-24 10:53:00,61.5,44.7,31.87,NE,40,5.4,8.9,54,0.00,,,0.00,VWS V14.01,2013-07-24 14:53:00,
2013-07-24 10:59:00,62.1,44.8,31.87,NNE,33,4.7,7.8,53,0.00,,,0.00,VWS V14.01,2013-07-24 14:59:00,
2013-07-24 11:06:00,63.1,45.8,31.87,NNE,23,5.4,12.3,53,0.00,,,0.00,VWS V14.01,2013-07-24 15:06:00,
2013-07-24 11:11:00,63.7,44.7,31.87,NE,37,5.4,8.9,50,0.00,,,0.00,VWS V14.01,2013-07-24 15:11:00,
2013-07-24 11:17:00,65.5,46.4,31.87,NNE,30,6.0,10.1,50,0.00,,,0.00,VWS V14.01,2013-07-24 15:17:00,
2013-07-24 11:22:00,65.8,45.1,31.87,NNE,21,0.0,7.8,47,0.00,,,0.00,VWS V14.01,2013-07-24 15:22:00,
2013-07-24 11:27:00,65.7,44.3,31.87,North,8,4.0,8.9,46,0.00,,,0.00,VWS V14.01,2013-07-24 15:27:00,
2013-07-24 11:32:00,66.2,44.2,31.87,North,5,0.0,0.0,45,0.00,,,0.00,VWS V14.01,2013-07-24 15:32:00,
2013-07-24 11:38:00,67.5,46.0,31.87,North,8,3.4,12.3,46,0.00,,,0.00,VWS V14.01,2013-07-24 15:38:00,
2013-07-24 11:44:00,68.2,45.5,31.87,NE,38,6.0,10.1,44,0.00,,,0.00,VWS V14.01,2013-07-24 15:44:00,
2013-07-24 11:49:00,68.2,44.9,31.87,NNE,17,6.7,20.1,43,0.00,,,0.00,VWS V14.01,2013-07-24 15:49:00,
2013-07-24 11:54:00,68.7,45.3,31.87,NE,44,5.4,10.1,43,0.00,,,0.00,VWS V14.01,2013-07-24 15:54:00,
2013-07-24 11:59:00,69.3,45.2,31.87,NNE,27,3.4,10.1,42,0.00,,,0.00,VWS V14.01,2013-07-24 15:59:00,
2013-07-24 12:05:00,69.8,45.1,31.87,NE,34,4.7,13.4,41,0.00,,,0.00,VWS V14.01,2013-07-24 16:05:00,
2013-07-24 12:11:00,70.0,43.9,31.87,NNE,16,4.7,13.4,39,0.00,,,0.00,VWS V14.01,2013-07-24 16:11:00,
2013-07-24 12:16:00,70.3,44.2,31.87,NNE,16,4.7,8.9,39,0.00,,,0.00,VWS V14.01,2013-07-24 16:16:00,
2013-07-24 12:22:00,70.0,42.5,31.87,NNE,19,5.4,8.9,37,0.00,,,0.00,VWS V14.01,2013-07-24 16:22:00,
2013-07-24 12:27:00,70.5,43.0,31.87,North,7,4.7,15.7,37,0.00,,,0.00,VWS V14.01,2013-07-24 16:27:00,
2013-07-24 12:33:00,71.2,44.4,31.87,NNE,17,4.0,7.8,38,0.00,,,0.00,VWS V14.01,2013-07-24 16:33:00,
2013-07-24 12:38:00,71.6,44.0,31.87,NNE,20,5.4,14.5,37,0.00,,,0.00,VWS V14.01,2013-07-24 16:38:00,
2013-07-24 12:43:00,71.8,44.1,31.87,North,8,6.0,15.7,37,0.00,,,0.00,VWS V14.01,2013-07-24 16:43:00,
2013-07-24 12:48:00,71.8,44.1,31.87,NE,39,6.0,15.7,37,0.00,,,0.00,VWS V14.01,2013-07-24 16:48:00,
2013-07-24 12:53:00,72.5,44.8,31.87,NE,35,8.7,14.5,37,0.00,,,0.00,VWS V14.01,2013-07-24 16:53:00,
2013-07-24 12:59:00,72.5,44.1,31.87,NE,53,4.0,13.4,36,0.00,,,0.00,VWS V14.01,2013-07-24 16:59:00,
2013-07-24 13:04:00,72.7,44.2,31.87,NE,54,3.4,13.4,36,0.00,,,0.00,VWS V14.01,2013-07-24 17:04:00,
2013-07-24 13:09:00,72.9,43.6,31.87,NE,41,5.4,10.1,35,0.00,,,0.00,VWS V14.01,2013-07-24 17:09:00,
2013-07-24 13:14:00,73.0,43.8,31.87,NE,34,6.0,14.5,35,0.00,,,0.00,VWS V14.01,2013-07-24 17:14:00,
2013-07-24 13:19:00,73.2,44.0,31.87,NNE,33,4.0,8.9,35,0.00,,,0.00,VWS V14.01,2013-07-24 17:19:00,
2013-07-24 13:24:00,73.4,43.3,31.87,ENE,58,3.4,15.7,34,0.00,,,0.00,VWS V14.01,2013-07-24 17:24:00,
2013-07-24 13:30:00,73.8,44.4,31.87,NNE,16,4.7,8.9,35,0.00,,,0.00,VWS V14.01,2013-07-24 17:30:00,
2013-07-24 13:37:00,74.7,47.4,31.87,NE,43,4.0,6.7,38,0.00,,,0.00,VWS V14.01,2013-07-24 17:37:00,
2013-07-24 13:43:00,75.0,44.8,31.87,NNE,26,3.4,5.6,34,0.00,,,0.00,VWS V14.01,2013-07-24 17:43:00,
2013-07-24 13:48:00,75.2,45.7,31.87,NNE,16,6.0,10.1,35,0.00,,,0.00,VWS V14.01,2013-07-24 17:48:00,
2013-07-24 13:53:00,74.7,44.5,31.87,NNE,12,4.0,6.7,34,0.00,,,0.00,VWS V14.01,2013-07-24 17:53:00,
2013-07-24 13:58:00,74.8,44.6,31.87,NNE,29,4.7,13.4,34,0.00,,,0.00,VWS V14.01,2013-07-24 17:58:00,
2013-07-24 14:04:00,74.8,43.8,31.87,NNE,19,4.0,7.8,33,0.00,,,0.00,VWS V14.01,2013-07-24 18:04:00,
2013-07-24 14:11:00,75.6,45.2,31.87,ENE,58,0.0,5.6,34,0.00,,,0.00,VWS V14.01,2013-07-24 18:11:00,
2013-07-24 14:17:00,76.1,44.9,31.87,NE,36,7.4,13.4,33,0.00,,,0.00,VWS V14.01,2013-07-24 18:17:00,
2013-07-24 14:22:00,75.7,43.8,31.87,North,3,5.4,13.4,32,0.00,,,0.00,VWS V14.01,2013-07-24 18:22:00,
2013-07-24 14:28:00,77.4,46.0,31.87,NE,39,4.7,8.9,33,0.00,,,0.00,VWS V14.01,2013-07-24 18:28:00,
2013-07-24 14:33:00,75.2,43.3,31.87,NNE,14,4.0,6.7,32,0.00,,,0.00,VWS V14.01,2013-07-24 18:33:00,
2013-07-24 14:39:00,76.6,45.4,31.87,NNW,343,4.7,7.8,33,0.00,,,0.00,VWS V14.01,2013-07-24 18:39:00,
2013-07-24 14:46:00,77.7,45.5,31.87,NW,305,4.0,10.1,32,0.00,,,0.00,VWS V14.01,2013-07-24 18:46:00,
2013-07-24 14:51:00,77.2,45.1,31.87,NNE,20,4.0,8.9,32,0.00,,,0.00,VWS V14.01,2013-07-24 18:51:00,
2013-07-24 14:57:00,77.2,45.1,31.87,North,9,8.1,13.4,32,0.00,,,0.00,VWS V14.01,2013-07-24 18:57:00,
2013-07-24 15:02:00,77.0,44.1,31.87,NNE,15,4.7,13.4,31,0.00,,,0.00,VWS V14.01,2013-07-24 19:02:00,
2013-07-24 15:08:00,78.3,46.0,31.87,North,7,0.0,0.0,32,0.00,,,0.00,VWS V14.01,2013-07-24 19:08:00,
2013-07-24 15:13:00,78.1,45.0,31.87,NNE,17,3.4,6.7,31,0.00,,,0.00,VWS V14.01,2013-07-24 19:13:00,
2013-07-24 15:18:00,78.3,45.2,31.87,North,353,0.0,6.7,31,0.00,,,0.00,VWS V14.01,2013-07-24 19:18:00,
2013-07-24 15:24:00,79.0,44.9,31.87,North,6,4.0,7.8,30,0.00,,,0.00,VWS V14.01,2013-07-24 19:24:00,
2013-07-24 15:31:00,78.6,44.6,31.87,NNE,30,6.0,10.1,30,0.00,,,0.00,VWS V14.01,2013-07-24 19:31:00,
2013-07-24 15:37:00,79.5,46.3,31.87,WNW,303,0.0,5.6,31,0.00,,,0.00,VWS V14.01,2013-07-24 19:37:00,
2013-07-24 15:42:00,77.4,43.5,31.87,NNE,26,5.4,13.4,30,0.00,,,0.00,VWS V14.01,2013-07-24 19:42:00,
2013-07-24 15:47:00,78.1,45.0,31.87,NNE,16,5.4,12.3,31,0.00,,,0.00,VWS V14.01,2013-07-24 19:47:00,
2013-07-24 15:52:00,78.3,45.2,31.87,NNE,24,6.0,10.1,31,0.00,,,0.00,VWS V14.01,2013-07-24 19:52:00,
2013-07-24 15:57:00,79.0,44.9,31.87,North,353,0.0,0.0,30,0.00,,,0.00,VWS V14.01,2013-07-24 19:57:00,
2013-07-24 16:03:00,79.3,45.2,31.87,North,357,0.0,0.0,30,0.00,,,0.00,VWS V14.01,2013-07-24 20:03:00,
2013-07-24 16:08:00,79.3,45.2,31.87,NNE,21,4.0,10.1,30,0.00,,,0.00,VWS V14.01,2013-07-24 20:08:00,
2013-07-24 16:13:00,79.5,45.4,31.87,ENE,57,3.4,6.7,30,0.00,,,0.00,VWS V14.01,2013-07-24 20:13:00,
2013-07-24 16:18:00,78.6,44.6,31.87,NE,35,4.7,7.8,30,0.00,,,0.00,VWS V14.01,2013-07-24 20:18:00,
2013-07-24 16:23:00,79.2,45.1,31.87,NNE,16,4.0,6.7,30,0.00,,,0.00,VWS V14.01,2013-07-24 20:23:00,
2013-07-24 16:29:00,79.2,45.1,31.87,NNE,24,4.0,15.7,30,0.00,,,0.00,VWS V14.01,2013-07-24 20:29:00,
2013-07-24 16:37:00,79.0,44.9,31.87,ENE,60,3.4,10.1,30,0.00,,,0.00,VWS V14.01,2013-07-24 20:37:00,
2013-07-24 16:42:00,78.8,44.8,31.87,NE,39,0.0,8.9,30,0.00,,,0.00,VWS V14.01,2013-07-24 20:42:00,
2013-07-24 16:47:00,77.9,44.0,31.87,NNE,27,4.0,6.7,30,0.00,,,0.00,VWS V14.01,2013-07-24 20:47:00,
2013-07-24 16:53:00,78.3,44.3,31.87,NNE,29,0.0,6.7,30,0.00,,,0.00,VWS V14.01,2013-07-24 20:53:00,
2013-07-24 16:58:00,79.9,46.6,31.87,NE,40,4.0,8.9,31,0.00,,,0.00,VWS V14.01,2013-07-24 20:58:00,
2013-07-24 17:03:00,78.4,44.5,31.87,NNE,29,6.0,10.1,30,0.00,,,0.00,VWS V14.01,2013-07-24 21:03:00,
2013-07-24 17:08:00,78.1,44.2,31.87,NNE,27,5.4,8.9,30,0.00,,,0.00,VWS V14.01,2013-07-24 21:08:00,
2013-07-24 17:14:00,78.4,45.3,31.87,ENE,64,4.0,8.9,31,0.00,,,0.00,VWS V14.01,2013-07-24 21:14:00,
2013-07-24 17:21:00,79.3,45.2,31.87,NNE,25,5.4,8.9,30,0.00,,,0.00,VWS V14.01,2013-07-24 21:21:00,
2013-07-24 17:27:00,79.9,46.6,31.87,North,5,4.0,7.8,31,0.00,,,0.00,VWS V14.01,2013-07-24 21:27:00,
2013-07-24 17:32:00,81.0,47.5,31.87,NNE,19,4.7,7.8,31,0.00,,,0.00,VWS V14.01,2013-07-24 21:32:00,
2013-07-24 17:38:00,78.1,44.2,31.87,NE,36,6.0,13.4,30,0.00,,,0.00,VWS V14.01,2013-07-24 21:38:00,
2013-07-24 17:44:00,77.7,45.5,31.87,NE,54,0.0,0.0,32,0.00,,,0.00,VWS V14.01,2013-07-24 21:44:00,
2013-07-24 17:49:00,79.5,47.1,31.87,NNE,22,4.7,8.9,32,0.00,,,0.00,VWS V14.01,2013-07-24 21:49:00,
2013-07-24 17:54:00,79.2,45.1,31.87,NNE,23,0.0,6.7,30,0.00,,,0.00,VWS V14.01,2013-07-24 21:54:00,
2013-07-24 18:01:00,79.2,45.1,31.87,North,5,0.0,6.7,30,0.00,,,0.00,VWS V14.01,2013-07-24 22:01:00,
2013-07-24 18:06:00,79.9,45.7,31.87,North,5,3.4,5.6,30,0.00,,,0.00,VWS V14.01,2013-07-24 22:06:00,
2013-07-24 18:12:00,79.0,44.9,31.87,NE,36,3.4,7.8,30,0.00,,,0.00,VWS V14.01,2013-07-24 22:12:00,
2013-07-24 18:17:00,78.3,44.3,31.87,NE,39,5.4,8.9,30,0.00,,,0.00,VWS V14.01,2013-07-24 22:17:00,
2013-07-24 18:22:00,76.6,43.8,31.87,NNE,23,5.4,10.1,31,0.00,,,0.00,VWS V14.01,2013-07-24 22:22:00,
2013-07-24 18:28:00,75.4,42.7,31.87,NNE,28,4.0,6.7,31,0.00,,,0.00,VWS V14.01,2013-07-24 22:28:00,
2013-07-24 18:34:00,75.4,43.5,31.87,NNE,21,0.0,7.8,32,0.00,,,0.00,VWS V14.01,2013-07-24 22:34:00,
2013-07-24 18:39:00,76.8,46.3,31.87,NNE,21,4.0,6.7,34,0.00,,,0.00,VWS V14.01,2013-07-24 22:39:00,
2013-07-24 18:44:00,78.8,48.1,31.87,NNW,336,0.0,0.0,34,0.00,,,0.00,VWS V14.01,2013-07-24 22:44:00,
2013-07-24 18:49:00,79.9,48.2,31.87,NW,319,5.4,8.9,33,0.00,,,0.00,VWS V14.01,2013-07-24 22:49:00,
2013-07-24 18:54:00,79.2,47.6,31.87,North,357,0.0,5.6,33,0.00,,,0.00,VWS V14.01,2013-07-24 22:54:00,
2013-07-24 18:59:00,77.2,45.9,31.87,North,350,0.0,0.0,33,0.00,,,0.00,VWS V14.01,2013-07-24 22:59:00,
2013-07-24 19:05:00,76.3,45.9,31.87,North,11,4.0,7.8,34,0.00,,,0.00,VWS V14.01,2013-07-24 23:05:00,
2013-07-24 19:11:00,74.8,44.6,31.87,NW,315,5.4,10.1,34,0.00,,,0.00,VWS V14.01,2013-07-24 23:11:00,
2013-07-24 19:16:00,74.1,44.8,31.87,North,0,4.0,7.8,35,0.00,,,0.00,VWS V14.01,2013-07-24 23:16:00,
2013-07-24 19:21:00,73.6,44.3,31.87,NW,326,5.4,8.9,35,0.00,,,0.00,VWS V14.01,2013-07-24 23:21:00,
2013-07-24 19:26:00,73.6,45.0,31.87,NNW,328,6.0,13.4,36,0.00,,,0.00,VWS V14.01,2013-07-24 23:26:00,
2013-07-24 19:33:00,73.2,45.4,31.87,NNW,338,8.1,13.4,37,0.00,,,0.00,VWS V14.01,2013-07-24 23:33:00,
2013-07-24 19:38:00,72.9,45.1,31.87,NW,326,4.7,7.8,37,0.00,,,0.00,VWS V14.01,2013-07-24 23:38:00,
2013-07-24 19:43:00,72.1,43.7,31.87,North,7,4.7,7.8,36,0.00,,,0.00,VWS V14.01,2013-07-24 23:43:00,
2013-07-24 19:48:00,71.1,43.5,31.87,North,357,4.0,6.7,37,0.00,,,0.00,VWS V14.01,2013-07-24 23:48:00,
2013-07-24 19:53:00,70.2,43.4,31.87,NNW,335,7.4,12.3,38,0.00,,,0.00,VWS V14.01,2013-07-24 23:53:00,
2013-07-24 19:58:00,69.8,44.4,31.87,NW,326,6.0,10.1,40,0.00,,,0.00,VWS V14.01,2013-07-24 23:58:00,
2013-07-24 20:03:00,69.4,45.4,31.87,North,4,4.7,7.8,42,0.00,,,0.00,VWS V14.01,2013-07-25 00:03:00,
2013-07-24 20:09:00,69.1,45.7,31.87,NNW,333,4.0,8.9,43,0.00,,,0.00,VWS V14.01,2013-07-25 00:09:00,
2013-07-24 20:16:00,68.9,45.5,31.87,NNW,346,4.0,6.7,43,0.00,,,0.00,VWS V14.01,2013-07-25 00:16:00,
2013-07-24 20:21:00,68.4,45.6,31.87,NNW,341,0.0,7.8,44,0.00,,,0.00,VWS V14.01,2013-07-25 00:21:00,
2013-07-24 20:27:00,68.0,45.3,31.87,NNW,332,0.0,0.0,44,0.00,,,0.00,VWS V14.01,2013-07-25 00:27:00,
2013-07-24 20:33:00,67.5,45.4,31.87,NNW,332,0.0,0.0,45,0.00,,,0.00,VWS V14.01,2013-07-25 00:33:00,
2013-07-24 20:39:00,66.9,45.5,31.87,NNW,332,0.0,0.0,46,0.00,,,0.00,VWS V14.01,2013-07-25 00:39:00,
2013-07-24 20:44:00,66.7,45.9,31.87,NNW,332,0.0,0.0,47,0.00,,,0.00,VWS V14.01,2013-07-25 00:44:00,
2013-07-24 20:49:00,66.6,45.7,31.87,NNW,332,0.0,0.0,47,0.00,,,0.00,VWS V14.01,2013-07-25 00:49:00,
2013-07-24 20:54:00,66.2,46.0,31.87,NNW,332,0.0,0.0,48,0.00,,,0.00,VWS V14.01,2013-07-25 00:54:00,
2013-07-24 21:01:00,65.5,46.4,31.87,NNW,332,0.0,0.0,50,0.00,,,0.00,VWS V14.01,2013-07-25 01:01:00,
2013-07-24 21:06:00,65.1,46.6,31.87,NNW,332,0.0,0.0,51,0.00,,,0.00,VWS V14.01,2013-07-25 01:06:00,
2013-07-24 21:12:00,64.4,46.4,31.87,NNW,332,0.0,0.0,52,0.00,,,0.00,VWS V14.01,2013-07-25 01:12:00,
2013-07-24 21:17:00,64.0,47.1,31.87,NNW,332,0.0,0.0,54,0.00,,,0.00,VWS V14.01,2013-07-25 01:17:00,
2013-07-24 21:22:00,63.9,46.9,31.87,NNW,332,0.0,0.0,54,0.00,,,0.00,VWS V14.01,2013-07-25 01:22:00,
2013-07-24 21:28:00,63.5,46.6,31.87,NNW,332,0.0,0.0,54,0.00,,,0.00,VWS V14.01,2013-07-25 01:28:00,
2013-07-24 21:33:00,63.1,46.7,31.87,NNW,332,0.0,0.0,55,0.00,,,0.00,VWS V14.01,2013-07-25 01:33:00,
2013-07-24 21:39:00,62.8,46.9,31.87,NNW,332,0.0,0.0,56,0.00,,,0.00,VWS V14.01,2013-07-25 01:39:00,
2013-07-24 21:44:00,62.6,46.7,31.87,NNW,332,0.0,0.0,56,0.00,,,0.00,VWS V14.01,2013-07-25 01:44:00,
2013-07-24 21:50:00,62.2,46.8,31.87,NNW,332,0.0,0.0,57,0.00,,,0.00,VWS V14.01,2013-07-25 01:50:00,
2013-07-24 21:56:00,61.9,46.5,31.87,NNW,332,0.0,0.0,57,0.00,,,0.00,VWS V14.01,2013-07-25 01:56:00,
2013-07-24 22:01:00,61.7,46.8,31.87,NNW,332,0.0,0.0,58,0.00,,,0.00,VWS V14.01,2013-07-25 02:01:00,
2013-07-24 22:07:00,61.5,46.6,31.87,NNW,332,0.0,0.0,58,0.00,,,0.00,VWS V14.01,2013-07-25 02:07:00,
2013-07-24 22:12:00,61.3,46.9,31.87,NNW,332,0.0,0.0,59,0.00,,,0.00,VWS V14.01,2013-07-25 02:12:00,
2013-07-24 22:18:00,61.0,46.6,31.87,NNW,332,0.0,0.0,59,0.00,,,0.00,VWS V14.01,2013-07-25 02:18:00,
2013-07-24 22:23:00,60.8,46.8,31.87,NNW,332,0.0,0.0,60,0.00,,,0.00,VWS V14.01,2013-07-25 02:23:00,
2013-07-24 22:29:00,60.6,47.1,31.87,NNW,332,0.0,0.0,61,0.00,,,0.00,VWS V14.01,2013-07-25 02:29:00,
2013-07-24 22:34:00,60.6,47.1,31.87,NNW,332,0.0,0.0,61,0.00,,,0.00,VWS V14.01,2013-07-25 02:34:00,
2013-07-24 22:39:00,60.4,47.4,31.87,NNW,332,0.0,0.0,62,0.00,,,0.00,VWS V14.01,2013-07-25 02:39:00,
2013-07-24 22:44:00,60.3,47.2,31.87,NNW,332,0.0,0.0,62,0.00,,,0.00,VWS V14.01,2013-07-25 02:44:00,
2013-07-24 22:51:00,60.1,47.5,31.87,NNW,332,0.0,0.0,63,0.00,,,0.00,VWS V14.01,2013-07-25 02:51:00,
2013-07-24 22:57:00,59.7,47.5,31.87,NNW,332,0.0,0.0,64,0.00,,,0.00,VWS V14.01,2013-07-25 02:57:00,
2013-07-24 23:03:00,59.5,47.4,31.87,NNW,332,0.0,0.0,64,0.00,,,0.00,VWS V14.01,2013-07-25 03:03:00,
2013-07-24 23:08:00,59.2,47.4,31.87,NNW,332,0.0,0.0,65,0.00,,,0.00,VWS V14.01,2013-07-25 03:08:00,
2013-07-24 23:14:00,59.2,47.4,31.87,NNW,332,0.0,0.0,65,0.00,,,0.00,VWS V14.01,2013-07-25 03:14:00,
2013-07-24 23:20:00,59.2,47.8,31.87,NNW,332,0.0,0.0,66,0.00,,,0.00,VWS V14.01,2013-07-25 03:20:00,
2013-07-24 23:26:00,59.0,47.7,31.87,NNW,332,0.0,0.0,66,0.00,,,0.00,VWS V14.01,2013-07-25 03:26:00,
2013-07-24 23:32:00,58.8,47.9,31.87,NNW,332,0.0,0.0,67,0.00,,,0.00,VWS V14.01,2013-07-25 03:32:00,
2013-07-24 23:38:00,58.8,47.9,31.87,NNW,332,0.0,0.0,67,0.00,,,0.00,VWS V14.01,2013-07-25 03:38:00,
2013-07-24 23:43:00,58.6,47.7,31.87,NNW,332,0.0,0.0,67,0.00,,,0.00,VWS V14.01,2013-07-25 03:43:00,
2013-07-24 23:50:00,58.5,47.6,31.87,NNW,332,0.0,0.0,67,0.00,,,0.00,VWS V14.01,2013-07-25 03:50:00,
2013-07-24 23:56:00,58.3,47.8,31.87,NNW,332,0.0,0.0,68,0.00,,,0.00,VWS V14.01,2013-07-25 03:56:00,